Pagina principale
METAR-TAF:

METAR-TAF

Aeroporti :

Aeroporto di Catania-Fontanarossa

Catania, Italia

latitudine: 37-28N, longitudine: 015-03E, altezza: 11 m

Osservazione

Il bollettino è stato emesso 13 minuti fa, alle 05:50 UTC
Vento 5 kt da ovest/sud-ovest
Temperature 4°C
Umidità 93%
Pressione 1023 hPa
Visibilità: 7000 m

METAR: LICC 200550Z 24005KT 7000 NSC 04/03 Q1023

Ora: 07:03 (06:03 UTC)

Previsione

Il bollettino è stato emesso 1 ora e 3 minuti fa, alle 05:00 UTC
Previsione valida dal 20 alle 06 UTC al 21 alle 06 UTC
Vento 5 kt da ovest
Visibilità 10 km o più
Poco nuvoloso ad un'altezza di 2500 ft
Evoluzione graduale
dal 20 alle 10 UTC al 20 alle 12 UTC
Vento 10 kt da est/nord-est
Evoluzione graduale
dal 20 alle 18 UTC al 20 alle 20 UTC
Vento 5 kt da direzioni variabili

TAF: LICC 200500Z 2006/2106 26005KT 9999 FEW025 BECMG 2010/2012 07010KT BECMG 2018/2020 VRB05KT

Osservazioni e previsioni meteorologiche di più di 4000 aeroporti (messaggi METAR e TAF).

Le stazioni disponibili sono rappresentate dai dischi gialli e rossi sulla carta.

Puntare il mouse per vedere il nome della stazione.

Clicca sopra per visualizzare le osservazioni e previsioni meteorologiche.

Per cambiare la mappa : fare clic sui pulsanti verdi con una croce nera per ingrandire, il pulsante verde con un trattino per diminuire, o sulla freccia verde per le mappe adiacenti.


METAR-TAF: